sensor_id;sensor_type;location;lat;lon;timestamp;pressure;altitude;pressure_sealevel;temperature;humidity
55486;BME280;49383;-25.924;28.194;2023-02-01T00:00:17;85324.95;;;24.41;39.14
55486;BME280;49383;-25.924;28.194;2023-02-01T00:02:43;85320.60;;;24.62;39.16
55486;BME280;49383;-25.924;28.194;2023-02-01T00:05:09;85319.50;;;24.44;39.12
55486;BME280;49383;-25.924;28.194;2023-02-01T00:07:35;85312.88;;;24.60;39.20
55486;BME280;49383;-25.924;28.194;2023-02-01T00:10:00;85307.87;;;24.25;39.10
55486;BME280;49383;-25.924;28.194;2023-02-01T00:12:26;85303.90;;;24.66;39.15
55486;BME280;49383;-25.924;28.194;2023-02-01T00:14:52;85301.76;;;24.90;39.20
55486;BME280;49383;-25.924;28.194;2023-02-01T00:17:18;85295.57;;;24.66;39.17
55486;BME280;49383;-25.924;28.194;2023-02-01T00:19:44;85295.00;;;24.62;39.23
55486;BME280;49383;-25.924;28.194;2023-02-01T00:22:10;85291.00;;;24.66;39.19
55486;BME280;49383;-25.924;28.194;2023-02-01T00:24:35;85297.53;;;24.15;39.31
55486;BME280;49383;-25.924;28.194;2023-02-01T00:27:01;85300.44;;;24.56;39.35
55486;BME280;49383;-25.924;28.194;2023-02-01T00:29:27;85296.69;;;24.54;39.40
55486;BME280;49383;-25.924;28.194;2023-02-01T00:31:53;85301.05;;;24.54;39.40
55486;BME280;49383;-25.924;28.194;2023-02-01T00:34:19;85302.66;;;24.29;39.44
55486;BME280;49383;-25.924;28.194;2023-02-01T00:36:46;85301.29;;;24.57;39.37
55486;BME280;49383;-25.924;28.194;2023-02-01T00:39:11;85297.68;;;24.58;39.37
55486;BME280;49383;-25.924;28.194;2023-02-01T00:41:36;85291.38;;;24.58;39.37
55486;BME280;49383;-25.924;28.194;2023-02-01T00:44:02;85287.81;;;24.52;39.44
55486;BME280;49383;-25.924;28.194;2023-02-01T00:46:28;85288.06;;;24.57;39.39
55486;BME280;49383;-25.924;28.194;2023-02-01T00:48:54;85285.58;;;24.60;39.36
55486;BME280;49383;-25.924;28.194;2023-02-01T00:51:22;85281.02;;;24.61;39.33
55486;BME280;49383;-25.924;28.194;2023-02-01T00:53:46;85276.37;;;24.64;39.31
55486;BME280;49383;-25.924;28.194;2023-02-01T00:56:11;85274.58;;;24.21;39.28
55486;BME280;49383;-25.924;28.194;2023-02-01T00:58:37;85273.75;;;24.60;39.35
55486;BME280;49383;-25.924;28.194;2023-02-01T01:01:04;85273.69;;;24.62;39.34
55486;BME280;49383;-25.924;28.194;2023-02-01T01:03:28;85270.68;;;24.56;39.42
55486;BME280;49383;-25.924;28.194;2023-02-01T01:05:57;85266.10;;;24.42;39.61
55486;BME280;49383;-25.924;28.194;2023-02-01T01:08:19;85264.27;;;24.30;39.50
55486;BME280;49383;-25.924;28.194;2023-02-01T01:10:45;85261.89;;;24.54;39.46
55486;BME280;49383;-25.924;28.194;2023-02-01T01:13:11;85257.13;;;24.58;39.41
55486;BME280;49383;-25.924;28.194;2023-02-01T01:15:38;85254.23;;;24.54;39.46
55486;BME280;49383;-25.924;28.194;2023-02-01T01:18:03;85252.71;;;24.30;39.50
55486;BME280;49383;-25.924;28.194;2023-02-01T01:20:28;85249.90;;;24.31;39.49
55486;BME280;49383;-25.924;28.194;2023-02-01T01:22:53;85252.89;;;24.56;39.45
55486;BME280;49383;-25.924;28.194;2023-02-01T01:25:19;85255.48;;;24.36;39.43
55486;BME280;49383;-25.924;28.194;2023-02-01T01:27:45;85256.83;;;24.57;39.45
55486;BME280;49383;-25.924;28.194;2023-02-01T01:30:12;85256.75;;;24.50;39.53
55486;BME280;49383;-25.924;28.194;2023-02-01T01:32:37;85247.76;;;24.30;39.50
55486;BME280;49383;-25.924;28.194;2023-02-01T01:35:03;85245.50;;;24.10;39.48
55486;BME280;49383;-25.924;28.194;2023-02-01T01:37:28;85244.06;;;24.31;39.51
55486;BME280;49383;-25.924;28.194;2023-02-01T01:39:54;85248.06;;;24.49;39.56
55486;BME280;49383;-25.924;28.194;2023-02-01T01:42:20;85249.51;;;24.47;39.60
55486;BME280;49383;-25.924;28.194;2023-02-01T01:47:12;85240.64;;;24.42;39.68
55486;BME280;49383;-25.924;28.194;2023-02-01T01:49:38;85235.80;;;24.22;39.63
55486;BME280;49383;-25.924;28.194;2023-02-01T01:52:04;85232.59;;;24.44;39.64
55486;BME280;49383;-25.924;28.194;2023-02-01T01:54:33;85234.99;;;24.95;39.62
55486;BME280;49383;-25.924;28.194;2023-02-01T01:56:58;85234.68;;;24.45;39.66
55486;BME280;49383;-25.924;28.194;2023-02-01T01:59:21;85236.55;;;24.49;39.60
55486;BME280;49383;-25.924;28.194;2023-02-01T02:01:47;85237.21;;;24.24;39.64
55486;BME280;49383;-25.924;28.194;2023-02-01T02:04:12;85238.96;;;24.47;39.62
55486;BME280;49383;-25.924;28.194;2023-02-01T02:06:45;85237.33;;;24.40;39.72
55486;BME280;49383;-25.924;28.194;2023-02-01T02:09:04;85240.72;;;24.45;39.65
55486;BME280;49383;-25.924;28.194;2023-02-01T02:11:30;85239.56;;;24.46;39.65
55486;BME280;49383;-25.924;28.194;2023-02-01T02:13:57;85241.46;;;24.40;39.72
55486;BME280;49383;-25.924;28.194;2023-02-01T02:16:37;85243.92;;;24.38;39.75
55486;BME280;49383;-25.924;28.194;2023-02-01T02:18:54;85247.73;;;24.49;39.60
55486;BME280;49383;-25.924;28.194;2023-02-01T02:21:16;85249.23;;;24.22;39.67
55486;BME280;49383;-25.924;28.194;2023-02-01T02:28:40;85262.63;;;24.48;39.62
55486;BME280;49383;-25.924;28.194;2023-02-01T02:35:53;85278.84;;;24.23;39.67
55486;BME280;49383;-25.924;28.194;2023-02-01T02:38:18;85283.86;;;24.14;39.78
55486;BME280;49383;-25.924;28.194;2023-02-01T02:40:45;85294.01;;;24.45;39.68
55486;BME280;49383;-25.924;28.194;2023-02-01T02:43:09;85282.82;;;24.25;39.62
55486;BME280;49383;-25.924;28.194;2023-02-01T02:45:37;85288.52;;;24.42;39.69
55486;BME280;49383;-25.924;28.194;2023-02-01T02:48:01;85293.67;;;24.42;39.70
55486;BME280;49383;-25.924;28.194;2023-02-01T02:50:26;85292.74;;;24.35;39.79
55486;BME280;49383;-25.924;28.194;2023-02-01T02:52:52;85298.75;;;24.36;39.78
55486;BME280;49383;-25.924;28.194;2023-02-01T02:55:14;85292.71;;;24.48;39.62
55486;BME280;49383;-25.924;28.194;2023-02-01T02:57:41;85293.63;;;24.32;39.84
55486;BME280;49383;-25.924;28.194;2023-02-01T03:00:08;85299.44;;;24.30;39.85
55486;BME280;49383;-25.924;28.194;2023-02-01T03:02:32;85297.84;;;24.29;39.88
55486;BME280;49383;-25.924;28.194;2023-02-01T03:04:57;85293.42;;;24.28;39.87
55486;BME280;49383;-25.924;28.194;2023-02-01T03:09:49;85295.41;;;24.33;39.83
55486;BME280;49383;-25.924;28.194;2023-02-01T03:12:15;85294.30;;;24.36;39.78
55486;BME280;49383;-25.924;28.194;2023-02-01T03:14:43;85289.18;;;24.36;39.79
55486;BME280;49383;-25.924;28.194;2023-02-01T03:17:10;85293.30;;;24.39;39.76
55486;BME280;49383;-25.924;28.194;2023-02-01T03:19:35;85292.25;;;24.36;39.79
55486;BME280;49383;-25.924;28.194;2023-02-01T03:22:01;85290.95;;;24.33;39.83
55486;BME280;49383;-25.924;28.194;2023-02-01T03:24:27;85294.44;;;24.31;39.87
55486;BME280;49383;-25.924;28.194;2023-02-01T03:26:53;85298.02;;;24.33;39.84
55486;BME280;49383;-25.924;28.194;2023-02-01T03:29:22;85302.33;;;24.12;39.83
55486;BME280;49383;-25.924;28.194;2023-02-01T03:31:42;85305.10;;;24.14;39.81
55486;BME280;49383;-25.924;28.194;2023-02-01T03:34:07;85311.46;;;24.18;39.75
55486;BME280;49383;-25.924;28.194;2023-02-01T03:36:37;85317.11;;;24.47;39.68
55486;BME280;49383;-25.924;28.194;2023-02-01T03:39:02;85320.02;;;24.42;39.75
55486;BME280;49383;-25.924;28.194;2023-02-01T03:41:31;85321.22;;;24.40;39.79
55486;BME280;49383;-25.924;28.194;2023-02-01T03:43:55;85323.07;;;24.33;39.86
55486;BME280;49383;-25.924;28.194;2023-02-01T03:46:20;85326.22;;;24.29;39.93
55486;BME280;49383;-25.924;28.194;2023-02-01T03:48:42;85334.64;;;24.24;39.99
55486;BME280;49383;-25.924;28.194;2023-02-01T03:51:07;85339.80;;;24.05;39.96
55486;BME280;49383;-25.924;28.194;2023-02-01T03:53:34;85344.09;;;24.26;39.97
55486;BME280;49383;-25.924;28.194;2023-02-01T03:55:58;85345.27;;;24.30;39.93
55486;BME280;49383;-25.924;28.194;2023-02-01T03:58:24;85348.01;;;24.28;39.97
55486;BME280;49383;-25.924;28.194;2023-02-01T04:00:53;85348.18;;;24.32;39.91
55486;BME280;49383;-25.924;28.194;2023-02-01T04:03:15;85350.66;;;24.30;39.67
55486;BME280;49383;-25.924;28.194;2023-02-01T04:05:41;85350.17;;;24.28;39.69
55486;BME280;49383;-25.924;28.194;2023-02-01T04:08:07;85356.55;;;24.46;39.75
55486;BME280;49383;-25.924;28.194;2023-02-01T04:10:33;85359.70;;;24.38;39.87
55486;BME280;49383;-25.924;28.194;2023-02-01T04:12:59;85362.31;;;24.26;40.03
55486;BME280;49383;-25.924;28.194;2023-02-01T04:15:25;85364.43;;;24.30;39.99
55486;BME280;49383;-25.924;28.194;2023-02-01T04:17:49;85366.53;;;24.31;39.97
55486;BME280;49383;-25.924;28.194;2023-02-01T04:20:15;85365.39;;;24.31;39.99
55486;BME280;49383;-25.924;28.194;2023-02-01T04:22:40;85367.76;;;24.29;40.02
55486;BME280;49383;-25.924;28.194;2023-02-01T04:25:07;85371.26;;;24.30;40.01
55486;BME280;49383;-25.924;28.194;2023-02-01T04:27:32;85375.94;;;24.31;40.02
55486;BME280;49383;-25.924;28.194;2023-02-01T04:29:58;85376.93;;;24.56;40.04
55486;BME280;49383;-25.924;28.194;2023-02-01T04:32:23;85378.54;;;24.32;40.02
55486;BME280;49383;-25.924;28.194;2023-02-01T04:34:49;85381.39;;;24.25;40.10
55486;BME280;49383;-25.924;28.194;2023-02-01T04:37:15;85382.66;;;24.25;40.15
55486;BME280;49383;-25.924;28.194;2023-02-01T04:39:41;85386.32;;;24.28;40.09
55486;BME280;49383;-25.924;28.194;2023-02-01T04:42:07;85385.01;;;24.48;40.19
55486;BME280;49383;-25.924;28.194;2023-02-01T04:44:33;85388.12;;;23.95;40.25
55486;BME280;49383;-25.924;28.194;2023-02-01T04:46:58;85393.02;;;24.29;40.10
55486;BME280;49383;-25.924;28.194;2023-02-01T04:49:25;85394.38;;;24.29;40.11
55486;BME280;49383;-25.924;28.194;2023-02-01T04:51:50;85401.06;;;24.30;40.13
55486;BME280;49383;-25.924;28.194;2023-02-01T04:54:16;85400.88;;;24.27;40.15
55486;BME280;49383;-25.924;28.194;2023-02-01T04:56:42;85404.67;;;24.31;40.10
55486;BME280;49383;-25.924;28.194;2023-02-01T04:59:09;85404.31;;;24.13;40.36
55486;BME280;49383;-25.924;28.194;2023-02-01T05:01:34;85406.29;;;24.14;40.35
55486;BME280;49383;-25.924;28.194;2023-02-01T05:03:59;85409.17;;;24.25;40.21
55486;BME280;49383;-25.924;28.194;2023-02-01T05:06:25;85410.70;;;24.26;40.22
55486;BME280;49383;-25.924;28.194;2023-02-01T05:08:51;85412.50;;;24.24;40.24
55486;BME280;49383;-25.924;28.194;2023-02-01T05:11:17;85418.35;;;24.20;40.31
55486;BME280;49383;-25.924;28.194;2023-02-01T05:13:42;85424.11;;;24.27;40.22
55486;BME280;49383;-25.924;28.194;2023-02-01T05:16:08;85426.21;;;24.22;40.32
55486;BME280;49383;-25.924;28.194;2023-02-01T05:18:33;85422.39;;;24.24;40.30
55486;BME280;49383;-25.924;28.194;2023-02-01T05:20:59;85421.23;;;24.25;40.27
55486;BME280;49383;-25.924;28.194;2023-02-01T05:23:25;85416.79;;;24.20;40.36
55486;BME280;49383;-25.924;28.194;2023-02-01T05:25:51;85415.61;;;24.18;40.40
55486;BME280;49383;-25.924;28.194;2023-02-01T05:28:17;85411.21;;;24.49;40.34
55486;BME280;49383;-25.924;28.194;2023-02-01T05:30:43;85408.73;;;24.17;40.44
55486;BME280;49383;-25.924;28.194;2023-02-01T05:33:08;85410.17;;;24.23;40.37
55486;BME280;49383;-25.924;28.194;2023-02-01T05:35:34;85413.90;;;24.24;40.36
55486;BME280;49383;-25.924;28.194;2023-02-01T05:38:01;85416.71;;;24.22;40.39
55486;BME280;49383;-25.924;28.194;2023-02-01T05:40:25;85419.42;;;24.23;40.38
55486;BME280;49383;-25.924;28.194;2023-02-01T05:42:51;85422.87;;;24.19;40.45
55486;BME280;49383;-25.924;28.194;2023-02-01T05:45:17;85427.01;;;24.20;40.45
55486;BME280;49383;-25.924;28.194;2023-02-01T05:47:43;85425.05;;;24.44;40.50
55486;BME280;49383;-25.924;28.194;2023-02-01T05:50:09;85425.53;;;24.20;40.47
55486;BME280;49383;-25.924;28.194;2023-02-01T05:52:34;85424.31;;;23.97;40.49
55486;BME280;49383;-25.924;28.194;2023-02-01T05:55:00;85423.73;;;24.16;40.55
55486;BME280;49383;-25.924;28.194;2023-02-01T05:57:26;85422.78;;;24.20;40.51
55486;BME280;49383;-25.924;28.194;2023-02-01T05:59:52;85419.81;;;24.22;40.48
55486;BME280;49383;-25.924;28.194;2023-02-01T06:02:18;85418.10;;;24.22;40.51
55486;BME280;49383;-25.924;28.194;2023-02-01T06:04:43;85415.87;;;24.20;40.55
55486;BME280;49383;-25.924;28.194;2023-02-01T06:07:10;85416.51;;;24.01;40.52
55486;BME280;49383;-25.924;28.194;2023-02-01T06:09:36;85420.18;;;24.20;40.60
55486;BME280;49383;-25.924;28.194;2023-02-01T06:12:01;85425.18;;;24.19;40.62
55486;BME280;49383;-25.924;28.194;2023-02-01T06:14:27;85424.94;;;24.13;40.73
55486;BME280;49383;-25.924;28.194;2023-02-01T06:16:53;85421.50;;;24.14;40.72
55486;BME280;49383;-25.924;28.194;2023-02-01T06:19:17;85422.61;;;24.26;40.56
55486;BME280;49383;-25.924;28.194;2023-02-01T06:21:43;85424.09;;;24.22;40.62
55486;BME280;49383;-25.924;28.194;2023-02-01T06:24:09;85427.85;;;24.26;40.59
55486;BME280;49383;-25.924;28.194;2023-02-01T06:26:35;85425.91;;;24.20;40.68
55486;BME280;49383;-25.924;28.194;2023-02-01T06:29:01;85426.25;;;24.23;40.65
55486;BME280;49383;-25.924;28.194;2023-02-01T06:31:27;85425.72;;;24.30;40.56
55486;BME280;49383;-25.924;28.194;2023-02-01T06:33:52;85425.02;;;24.40;40.44
55486;BME280;49383;-25.924;28.194;2023-02-01T06:36:18;85423.31;;;24.38;40.47
55486;BME280;49383;-25.924;28.194;2023-02-01T06:38:44;85424.58;;;24.42;40.42
55486;BME280;49383;-25.924;28.194;2023-02-01T06:41:10;85426.91;;;24.44;40.39
55486;BME280;49383;-25.924;28.194;2023-02-01T06:43:36;85429.36;;;24.38;40.47
55486;BME280;49383;-25.924;28.194;2023-02-01T06:46:03;85434.36;;;24.24;40.37
55486;BME280;49383;-25.924;28.194;2023-02-01T06:48:27;85436.03;;;24.39;40.47
55486;BME280;49383;-25.924;28.194;2023-02-01T06:50:53;85438.93;;;24.34;40.54
55486;BME280;49383;-25.924;28.194;2023-02-01T06:53:19;85441.16;;;24.31;40.59
55486;BME280;49383;-25.924;28.194;2023-02-01T06:55:52;85442.68;;;24.11;40.55
55486;BME280;49383;-25.924;28.194;2023-02-01T06:58:11;85439.47;;;24.21;40.71
55486;BME280;49383;-25.924;28.194;2023-02-01T07:00:36;85434.77;;;24.26;40.65
55486;BME280;49383;-25.924;28.194;2023-02-01T07:03:02;85432.18;;;24.28;40.65
55486;BME280;49383;-25.924;28.194;2023-02-01T07:05:28;85428.96;;;24.33;40.57
55486;BME280;49383;-25.924;28.194;2023-02-01T07:07:54;85427.94;;;24.26;40.67
55486;BME280;49383;-25.924;28.194;2023-02-01T07:10:20;85429.54;;;24.28;40.65
55486;BME280;49383;-25.924;28.194;2023-02-01T07:12:45;85430.81;;;24.03;40.68
55486;BME280;49383;-25.924;28.194;2023-02-01T07:15:12;85433.70;;;24.29;40.65
55486;BME280;49383;-25.924;28.194;2023-02-01T07:17:37;85435.19;;;24.23;40.69
55486;BME280;49383;-25.924;28.194;2023-02-01T07:20:03;85436.77;;;24.24;40.69
55486;BME280;49383;-25.924;28.194;2023-02-01T07:22:29;85442.00;;;24.27;40.66
55486;BME280;49383;-25.924;28.194;2023-02-01T07:24:55;85441.21;;;24.27;40.62
55486;BME280;49383;-25.924;28.194;2023-02-01T07:27:20;85437.24;;;24.28;40.63
55486;BME280;49383;-25.924;28.194;2023-02-01T07:29:46;85433.26;;;24.25;40.66
55486;BME280;49383;-25.924;28.194;2023-02-01T07:32:12;85432.83;;;24.26;40.64
55486;BME280;49383;-25.924;28.194;2023-02-01T07:34:38;85434.72;;;24.30;40.59
55486;BME280;49383;-25.924;28.194;2023-02-01T07:37:04;85435.31;;;24.54;40.61
55486;BME280;49383;-25.924;28.194;2023-02-01T07:39:30;85435.46;;;24.03;40.63
55486;BME280;49383;-25.924;28.194;2023-02-01T07:41:55;85430.32;;;24.28;40.60
55486;BME280;49383;-25.924;28.194;2023-02-01T07:44:21;85428.84;;;23.80;40.62
55486;BME280;49383;-25.924;28.194;2023-02-01T07:46:47;85425.85;;;24.26;40.61
55486;BME280;49383;-25.924;28.194;2023-02-01T07:49:13;85420.57;;;24.06;40.59
55486;BME280;49383;-25.924;28.194;2023-02-01T07:51:38;85418.97;;;24.29;40.56
55486;BME280;49383;-25.924;28.194;2023-02-01T07:54:05;85414.48;;;24.32;40.52
55486;BME280;49383;-25.924;28.194;2023-02-01T07:56:30;85412.10;;;24.27;40.57
55486;BME280;49383;-25.924;28.194;2023-02-01T07:58:56;85412.42;;;24.02;40.61
55486;BME280;49383;-25.924;28.194;2023-02-01T08:01:24;85417.21;;;24.33;40.50
55486;BME280;49383;-25.924;28.194;2023-02-01T08:03:48;85418.13;;;24.26;40.57
55486;BME280;49383;-25.924;28.194;2023-02-01T08:06:13;85422.65;;;24.22;40.65
55486;BME280;49383;-25.924;28.194;2023-02-01T08:08:39;85425.04;;;24.20;40.67
55486;BME280;49383;-25.924;28.194;2023-02-01T08:11:05;85428.12;;;24.25;40.60
55486;BME280;49383;-25.924;28.194;2023-02-01T08:13:31;85432.16;;;24.26;40.57
55486;BME280;49383;-25.924;28.194;2023-02-01T08:15:59;85433.15;;;24.22;40.62
55486;BME280;49383;-25.924;28.194;2023-02-01T08:18:22;85428.29;;;24.26;40.57
55486;BME280;49383;-25.924;28.194;2023-02-01T08:20:48;85422.51;;;24.25;40.59
55486;BME280;49383;-25.924;28.194;2023-02-01T08:23:13;85418.16;;;24.04;40.56
55486;BME280;49383;-25.924;28.194;2023-02-01T08:25:39;85416.73;;;24.28;40.54
55486;BME280;49383;-25.924;28.194;2023-02-01T08:28:05;85419.28;;;24.34;40.45
55486;BME280;49383;-25.924;28.194;2023-02-01T08:30:31;85416.87;;;24.25;40.55
55486;BME280;49383;-25.924;28.194;2023-02-01T08:32:57;85419.71;;;24.19;40.65
55486;BME280;49383;-25.924;28.194;2023-02-01T08:35:22;85422.54;;;24.23;40.59
55486;BME280;49383;-25.924;28.194;2023-02-01T08:37:50;85421.74;;;24.22;40.60
55486;BME280;49383;-25.924;28.194;2023-02-01T08:40:14;85419.99;;;24.21;40.61
55486;BME280;49383;-25.924;28.194;2023-02-01T08:42:40;85418.49;;;24.27;40.53
55486;BME280;49383;-25.924;28.194;2023-02-01T08:45:07;85412.84;;;24.26;40.53
55486;BME280;49383;-25.924;28.194;2023-02-01T08:47:32;85410.33;;;24.26;40.53
55486;BME280;49383;-25.924;28.194;2023-02-01T08:49:58;85410.42;;;24.21;40.59
55486;BME280;49383;-25.924;28.194;2023-02-01T08:52:23;85409.56;;;24.20;40.59
55486;BME280;49383;-25.924;28.194;2023-02-01T08:54:49;85407.54;;;23.93;40.67
55486;BME280;49383;-25.924;28.194;2023-02-01T08:57:15;85404.09;;;24.49;40.56
55486;BME280;49383;-25.924;28.194;2023-02-01T08:59:41;85400.70;;;24.24;40.53
55486;BME280;49383;-25.924;28.194;2023-02-01T09:02:08;85400.27;;;24.24;40.52
55486;BME280;49383;-25.924;28.194;2023-02-01T09:04:32;85400.96;;;23.98;40.56
55486;BME280;49383;-25.924;28.194;2023-02-01T09:06:57;85400.68;;;24.30;40.43
55486;BME280;49383;-25.924;28.194;2023-02-01T09:09:24;85403.13;;;24.19;40.56
55486;BME280;49383;-25.924;28.194;2023-02-01T09:11:49;85407.23;;;24.46;40.56
55486;BME280;49383;-25.924;28.194;2023-02-01T09:14:15;85410.54;;;24.19;40.56
55486;BME280;49383;-25.924;28.194;2023-02-01T09:16:41;85410.55;;;24.26;40.48
55486;BME280;49383;-25.924;28.194;2023-02-01T09:19:07;85414.50;;;23.95;40.57
55486;BME280;49383;-25.924;28.194;2023-02-01T09:21:32;85414.89;;;24.27;40.45
55486;BME280;49383;-25.924;28.194;2023-02-01T09:23:59;85414.64;;;24.24;40.48
55486;BME280;49383;-25.924;28.194;2023-02-01T09:26:24;85414.56;;;24.24;40.46
55486;BME280;49383;-25.924;28.194;2023-02-01T09:28:50;85412.41;;;24.17;40.56
55486;BME280;49383;-25.924;28.194;2023-02-01T09:31:16;85413.13;;;23.91;40.60
55486;BME280;49383;-25.924;28.194;2023-02-01T09:33:42;85409.39;;;24.19;40.54
55486;BME280;49383;-25.924;28.194;2023-02-01T09:36:08;85410.36;;;24.24;40.46
55486;BME280;49383;-25.924;28.194;2023-02-01T09:38:33;85409.76;;;24.22;40.49
55486;BME280;49383;-25.924;28.194;2023-02-01T09:40:59;85409.96;;;24.19;40.54
55486;BME280;49383;-25.924;28.194;2023-02-01T09:43:36;85409.36;;;24.08;40.69
55486;BME280;49383;-25.924;28.194;2023-02-01T09:45:57;85407.73;;;23.94;40.57
55486;BME280;49383;-25.924;28.194;2023-02-01T09:48:19;85406.72;;;24.16;40.57
55486;BME280;49383;-25.924;28.194;2023-02-01T09:50:48;85405.06;;;23.91;40.62
55486;BME280;49383;-25.924;28.194;2023-02-01T09:53:15;85405.23;;;24.22;40.51
55486;BME280;49383;-25.924;28.194;2023-02-01T09:55:38;85402.47;;;24.14;40.60
55486;BME280;49383;-25.924;28.194;2023-02-01T09:58:02;85404.02;;;23.98;40.52
55486;BME280;49383;-25.924;28.194;2023-02-01T10:00:30;85402.07;;;24.22;40.50
55486;BME280;49383;-25.924;28.194;2023-02-01T10:02:52;85402.82;;;24.44;40.57
55486;BME280;49383;-25.924;28.194;2023-02-01T10:05:24;85404.76;;;24.41;40.63
55486;BME280;49383;-25.924;28.194;2023-02-01T10:07:49;85402.22;;;24.17;40.58
55486;BME280;49383;-25.924;28.194;2023-02-01T10:10:13;85398.10;;;24.51;40.50
55486;BME280;49383;-25.924;28.194;2023-02-01T10:12:47;85399.76;;;24.21;40.54
55486;BME280;49383;-25.924;28.194;2023-02-01T10:15:05;85399.73;;;24.26;40.46
55486;BME280;49383;-25.924;28.194;2023-02-01T10:17:37;85403.16;;;24.03;40.50
55486;BME280;49383;-25.924;28.194;2023-02-01T10:20:00;85405.26;;;24.78;40.44
55486;BME280;49383;-25.924;28.194;2023-02-01T10:22:26;85405.80;;;24.53;40.48
55486;BME280;49383;-25.924;28.194;2023-02-01T10:24:47;85404.82;;;24.30;40.43
55486;BME280;49383;-25.924;28.194;2023-02-01T10:27:15;85402.52;;;24.27;40.48
55486;BME280;49383;-25.924;28.194;2023-02-01T10:29:38;85399.50;;;24.29;40.46
55486;BME280;49383;-25.924;28.194;2023-02-01T10:32:02;85394.70;;;24.22;40.54
55486;BME280;49383;-25.924;28.194;2023-02-01T10:34:29;85395.39;;;24.26;40.49
55486;BME280;49383;-25.924;28.194;2023-02-01T10:36:56;85392.50;;;24.29;40.45
55486;BME280;49383;-25.924;28.194;2023-02-01T10:39:19;85388.03;;;24.64;40.35
55486;BME280;49383;-25.924;28.194;2023-02-01T10:41:45;85384.82;;;24.31;40.42
55486;BME280;49383;-25.924;28.194;2023-02-01T10:44:14;85384.89;;;24.29;40.47
55486;BME280;49383;-25.924;28.194;2023-02-01T10:46:36;85383.08;;;24.28;40.48
55486;BME280;49383;-25.924;28.194;2023-02-01T10:49:04;85379.30;;;24.26;40.51
55486;BME280;49383;-25.924;28.194;2023-02-01T10:51:29;85376.30;;;24.35;40.42
55486;BME280;49383;-25.924;28.194;2023-02-01T10:53:57;85370.50;;;24.23;40.57
55486;BME280;49383;-25.924;28.194;2023-02-01T10:56:23;85370.09;;;24.00;40.59
55486;BME280;49383;-25.924;28.194;2023-02-01T10:58:46;85368.95;;;24.29;40.51
55486;BME280;49383;-25.924;28.194;2023-02-01T11:01:16;85366.75;;;24.34;40.44
55486;BME280;49383;-25.924;28.194;2023-02-01T11:03:40;85361.49;;;24.32;40.46
55486;BME280;49383;-25.924;28.194;2023-02-01T11:06:08;85356.67;;;24.32;40.48
55486;BME280;49383;-25.924;28.194;2023-02-01T11:08:30;85352.26;;;24.28;40.51
55486;BME280;49383;-25.924;28.194;2023-02-01T11:11:00;85343.89;;;24.35;40.43
55486;BME280;49383;-25.924;28.194;2023-02-01T11:13:19;85341.67;;;24.33;40.45
55486;BME280;49383;-25.924;28.194;2023-02-01T11:15:45;85339.57;;;24.36;40.40
55486;BME280;49383;-25.924;28.194;2023-02-01T11:18:17;85336.62;;;24.31;40.45
55486;BME280;49383;-25.924;28.194;2023-02-01T11:20:39;85334.83;;;23.93;40.37
55486;BME280;49383;-25.924;28.194;2023-02-01T11:23:02;85335.91;;;24.18;40.32
55486;BME280;49383;-25.924;28.194;2023-02-01T11:25:27;85332.70;;;24.44;40.26
55486;BME280;49383;-25.924;28.194;2023-02-01T11:27:55;85332.72;;;24.43;40.26
55486;BME280;49383;-25.924;28.194;2023-02-01T11:30:27;85336.15;;;24.44;40.24
55486;BME280;49383;-25.924;28.194;2023-02-01T11:32:46;85337.84;;;24.46;40.19
55486;BME280;49383;-25.924;28.194;2023-02-01T11:35:15;85340.04;;;24.40;40.27
55486;BME280;49383;-25.924;28.194;2023-02-01T11:37:38;85337.81;;;24.41;40.24
55486;BME280;49383;-25.924;28.194;2023-02-01T11:40:22;85335.67;;;24.20;40.20
55486;BME280;49383;-25.924;28.194;2023-02-01T11:42:29;85337.18;;;24.35;40.28
55486;BME280;49383;-25.924;28.194;2023-02-01T11:47:24;85337.15;;;24.40;40.21
55486;BME280;49383;-25.924;28.194;2023-02-01T11:49:45;85332.48;;;24.44;40.15
55486;BME280;49383;-25.924;28.194;2023-02-01T11:52:18;85332.29;;;24.47;40.11
55486;BME280;49383;-25.924;28.194;2023-02-01T11:54:49;85332.70;;;24.39;40.21
55486;BME280;49383;-25.924;28.194;2023-02-01T11:57:14;85333.71;;;24.39;40.20
55486;BME280;49383;-25.924;28.194;2023-02-01T11:59:41;85334.90;;;24.24;40.10
55486;BME280;49383;-25.924;28.194;2023-02-01T12:06:51;85332.30;;;24.45;40.09
55486;BME280;49383;-25.924;28.194;2023-02-01T12:11:48;85322.72;;;24.18;39.83
55486;BME280;49383;-25.924;28.194;2023-02-01T12:14:12;85325.23;;;24.10;39.94
55486;BME280;49383;-25.924;28.194;2023-02-01T12:16:35;85322.52;;;24.51;39.99
55486;BME280;49383;-25.924;28.194;2023-02-01T12:21:34;85325.29;;;24.26;40.03
55486;BME280;49383;-25.924;28.194;2023-02-01T12:24:01;85321.19;;;24.23;40.07
55486;BME280;49383;-25.924;28.194;2023-02-01T12:28:47;85320.07;;;24.39;40.14
55486;BME280;49383;-25.924;28.194;2023-02-01T12:31:17;85319.65;;;24.73;40.04
55486;BME280;49383;-25.924;28.194;2023-02-01T12:33:37;85316.54;;;24.28;39.99
55486;BME280;49383;-25.924;28.194;2023-02-01T12:36:05;85307.30;;;24.24;40.03
55486;BME280;49383;-25.924;28.194;2023-02-01T12:38:32;85302.68;;;24.43;40.07
55486;BME280;49383;-25.924;28.194;2023-02-01T12:40:58;85300.13;;;24.44;40.07
55486;BME280;49383;-25.924;28.194;2023-02-01T12:43:15;85296.90;;;24.42;40.10
55486;BME280;49383;-25.924;28.194;2023-02-01T12:45:41;85291.97;;;24.49;40.01
55486;BME280;49383;-25.924;28.194;2023-02-01T12:48:12;85290.89;;;24.44;40.07
55486;BME280;49383;-25.924;28.194;2023-02-01T12:50:33;85285.35;;;24.44;40.07
55486;BME280;49383;-25.924;28.194;2023-02-01T12:52:58;85284.53;;;24.43;40.09
55486;BME280;49383;-25.924;28.194;2023-02-01T12:55:23;85281.18;;;24.74;40.05
55486;BME280;49383;-25.924;28.194;2023-02-01T12:57:50;85278.61;;;24.52;39.99
55486;BME280;49383;-25.924;28.194;2023-02-01T13:00:17;85276.94;;;24.53;39.98